Grand Oaks, Illinois
Current Conditions -  °F | °C
As of 4:54 PM on Thursday 27 Nov 2014 (Local Time) from KPIA Reporting Station
Clear Clear  
Wind Chill: 11°   Ceiling: Unl
Heat Index: 20°   Visibility: 10mi
Dew Point:   Wind: 7mph
Humidity: 62%   Direction: 280°W
Pressure: 30.46"   Gusts: NA
Location:  40.5996°N, 89.5548°W
Report Text: KPIA 272254Z 28006KT 10SM CLR M07/M13 A3046 RMK AO2 SLP324 T10671128
Loading
Personal Weather Stations






























Interactive Weather Map New forecast layout! Learn more

10-Day Weather Forecast

Advertisements
Track Severe Weather on mobile